sensor_id;sensor_type;location;lat;lon;timestamp;P1;P2;P0
70520;PMS5003;58442;52.716;23.560;2023-06-22T00:00:46;23;23;18
70520;PMS5003;58442;52.716;23.560;2023-06-22T00:02:57;16;16;14
70520;PMS5003;58442;52.716;23.560;2023-06-22T00:04:59;25;25;16
70520;PMS5003;58442;52.716;23.560;2023-06-22T00:07:01;25;25;18
70520;PMS5003;58442;52.716;23.560;2023-06-22T00:09:02;26;26;16
70520;PMS5003;58442;52.716;23.560;2023-06-22T00:11:11;27;27;17
70520;PMS5003;58442;52.716;23.560;2023-06-22T00:13:13;25;25;16
70520;PMS5003;58442;52.716;23.560;2023-06-22T00:15:16;25;25;17
70520;PMS5003;58442;52.716;23.560;2023-06-22T00:17:17;28;28;17
70520;PMS5003;58442;52.716;23.560;2023-06-22T00:19:26;24;24;17
70520;PMS5003;58442;52.716;23.560;2023-06-22T00:21:28;22;22;17
70520;PMS5003;58442;52.716;23.560;2023-06-22T00:23:29;23;23;17
70520;PMS5003;58442;52.716;23.560;2023-06-22T00:25:35;24;24;17
70520;PMS5003;58442;52.716;23.560;2023-06-22T00:27:41;25;25;17
70520;PMS5003;58442;52.716;23.560;2023-06-22T00:29:42;22;22;16
70520;PMS5003;58442;52.716;23.560;2023-06-22T00:31:44;19;19;16
70520;PMS5003;58442;52.716;23.560;2023-06-22T00:33:45;21;21;15
70520;PMS5003;58442;52.716;23.560;2023-06-22T00:35:55;25;25;19
70520;PMS5003;58442;52.716;23.560;2023-06-22T00:37:58;24;24;18
70520;PMS5003;58442;52.716;23.560;2023-06-22T00:40:05;26;26;18
70520;PMS5003;58442;52.716;23.560;2023-06-22T00:42:11;23;23;17
70520;PMS5003;58442;52.716;23.560;2023-06-22T00:44:12;24;24;17
70520;PMS5003;58442;52.716;23.560;2023-06-22T00:46:14;26;25;17
70520;PMS5003;58442;52.716;23.560;2023-06-22T00:48:15;23;23;17
70520;PMS5003;58442;52.716;23.560;2023-06-22T00:50:21;26;26;18
70520;PMS5003;58442;52.716;23.560;2023-06-22T00:52:25;23;23;18
70520;PMS5003;58442;52.716;23.560;2023-06-22T00:54:31;22;22;13
70520;PMS5003;58442;52.716;23.560;2023-06-22T00:56:32;22;22;17
70520;PMS5003;58442;52.716;23.560;2023-06-22T00:58:36;26;24;18
70520;PMS5003;58442;52.716;23.560;2023-06-22T01:00:41;25;25;17
70520;PMS5003;58442;52.716;23.560;2023-06-22T01:02:43;25;25;19
70520;PMS5003;58442;52.716;23.560;2023-06-22T01:04:50;27;27;19
70520;PMS5003;58442;52.716;23.560;2023-06-22T01:06:54;23;23;17
70520;PMS5003;58442;52.716;23.560;2023-06-22T01:09:06;25;25;16
70520;PMS5003;58442;52.716;23.560;2023-06-22T01:11:18;24;24;18
70520;PMS5003;58442;52.716;23.560;2023-06-22T01:15:40;24;24;18
70520;PMS5003;58442;52.716;23.560;2023-06-22T01:17:49;25;25;14
70520;PMS5003;58442;52.716;23.560;2023-06-22T01:19:54;22;22;17
70520;PMS5003;58442;52.716;23.560;2023-06-22T01:22:05;25;25;18
70520;PMS5003;58442;52.716;23.560;2023-06-22T01:26:33;30;30;20
70520;PMS5003;58442;52.716;23.560;2023-06-22T01:28:45;28;28;17
70520;PMS5003;58442;52.716;23.560;2023-06-22T01:30:48;25;25;17
70520;PMS5003;58442;52.716;23.560;2023-06-22T01:33:01;29;29;17
70520;PMS5003;58442;52.716;23.560;2023-06-22T01:35:15;26;26;19
70520;PMS5003;58442;52.716;23.560;2023-06-22T01:37:17;25;24;18
70520;PMS5003;58442;52.716;23.560;2023-06-22T01:39:20;26;26;17
70520;PMS5003;58442;52.716;23.560;2023-06-22T01:41:24;25;23;16
70520;PMS5003;58442;52.716;23.560;2023-06-22T01:43:30;23;23;15
70520;PMS5003;58442;52.716;23.560;2023-06-22T01:45:31;27;27;18
70520;PMS5003;58442;52.716;23.560;2023-06-22T01:47:33;28;27;17
70520;PMS5003;58442;52.716;23.560;2023-06-22T01:49:35;31;30;19
70520;PMS5003;58442;52.716;23.560;2023-06-22T01:51:44;24;24;17
70520;PMS5003;58442;52.716;23.560;2023-06-22T01:53:46;28;28;19
70520;PMS5003;58442;52.716;23.560;2023-06-22T01:55:48;25;25;18
70520;PMS5003;58442;52.716;23.560;2023-06-22T01:57:50;25;25;14
70520;PMS5003;58442;52.716;23.560;2023-06-22T02:00:00;29;28;19
70520;PMS5003;58442;52.716;23.560;2023-06-22T02:02:06;23;23;18
70520;PMS5003;58442;52.716;23.560;2023-06-22T02:04:12;27;27;18
70520;PMS5003;58442;52.716;23.560;2023-06-22T02:06:20;23;23;19
70520;PMS5003;58442;52.716;23.560;2023-06-22T02:08:33;25;25;18
70520;PMS5003;58442;52.716;23.560;2023-06-22T02:10:42;27;27;18
70520;PMS5003;58442;52.716;23.560;2023-06-22T02:12:46;27;27;17
70520;PMS5003;58442;52.716;23.560;2023-06-22T02:14:49;28;28;18
70520;PMS5003;58442;52.716;23.560;2023-06-22T02:16:52;31;30;19
70520;PMS5003;58442;52.716;23.560;2023-06-22T02:18:54;23;23;16
70520;PMS5003;58442;52.716;23.560;2023-06-22T02:20:55;30;29;19
70520;PMS5003;58442;52.716;23.560;2023-06-22T02:22:56;30;29;19
70520;PMS5003;58442;52.716;23.560;2023-06-22T02:24:58;27;24;17
70520;PMS5003;58442;52.716;23.560;2023-06-22T02:27:08;25;25;16
70520;PMS5003;58442;52.716;23.560;2023-06-22T02:29:09;29;28;19
70520;PMS5003;58442;52.716;23.560;2023-06-22T02:31:10;25;25;16
70520;PMS5003;58442;52.716;23.560;2023-06-22T02:33:12;26;26;18
70520;PMS5003;58442;52.716;23.560;2023-06-22T02:35:22;30;28;17
70520;PMS5003;58442;52.716;23.560;2023-06-22T02:37:24;25;25;18
70520;PMS5003;58442;52.716;23.560;2023-06-22T02:39:25;25;25;18
70520;PMS5003;58442;52.716;23.560;2023-06-22T02:41:27;30;28;18
70520;PMS5003;58442;52.716;23.560;2023-06-22T02:43:37;27;27;18
70520;PMS5003;58442;52.716;23.560;2023-06-22T02:45:38;29;29;19
70520;PMS5003;58442;52.716;23.560;2023-06-22T02:47:40;30;30;20
70520;PMS5003;58442;52.716;23.560;2023-06-22T02:49:41;29;29;18
70520;PMS5003;58442;52.716;23.560;2023-06-22T02:51:52;29;29;20
70520;PMS5003;58442;52.716;23.560;2023-06-22T02:53:55;31;31;22
70520;PMS5003;58442;52.716;23.560;2023-06-22T02:55:58;26;26;17
70520;PMS5003;58442;52.716;23.560;2023-06-22T02:58:02;29;29;17
70520;PMS5003;58442;52.716;23.560;2023-06-22T03:00:07;25;25;17
70520;PMS5003;58442;52.716;23.560;2023-06-22T03:02:28;30;29;19
70520;PMS5003;58442;52.716;23.560;2023-06-22T03:04:29;29;29;18
70520;PMS5003;58442;52.716;23.560;2023-06-22T03:06:31;24;24;19
70520;PMS5003;58442;52.716;23.560;2023-06-22T03:08:33;24;24;14
70520;PMS5003;58442;52.716;23.560;2023-06-22T03:10:43;21;21;12
70520;PMS5003;58442;52.716;23.560;2023-06-22T03:12:44;27;27;16
70520;PMS5003;58442;52.716;23.560;2023-06-22T03:14:47;23;23;17
70520;PMS5003;58442;52.716;23.560;2023-06-22T03:16:48;26;26;17
70520;PMS5003;58442;52.716;23.560;2023-06-22T03:18:57;26;26;20
70520;PMS5003;58442;52.716;23.560;2023-06-22T03:20:59;26;26;18
70520;PMS5003;58442;52.716;23.560;2023-06-22T03:23:02;26;26;19
70520;PMS5003;58442;52.716;23.560;2023-06-22T03:25:05;29;28;17
70520;PMS5003;58442;52.716;23.560;2023-06-22T03:27:13;34;32;18
70520;PMS5003;58442;52.716;23.560;2023-06-22T03:29:14;30;30;20
70520;PMS5003;58442;52.716;23.560;2023-06-22T03:31:16;29;29;17
70520;PMS5003;58442;52.716;23.560;2023-06-22T03:33:22;27;27;19
70520;PMS5003;58442;52.716;23.560;2023-06-22T03:35:27;32;31;20
70520;PMS5003;58442;52.716;23.560;2023-06-22T03:37:28;31;30;19
70520;PMS5003;58442;52.716;23.560;2023-06-22T03:39:30;30;29;18
70520;PMS5003;58442;52.716;23.560;2023-06-22T03:41:32;22;22;16
70520;PMS5003;58442;52.716;23.560;2023-06-22T03:43:42;28;28;18
70520;PMS5003;58442;52.716;23.560;2023-06-22T03:45:43;30;29;21
70520;PMS5003;58442;52.716;23.560;2023-06-22T03:47:46;23;23;17
70520;PMS5003;58442;52.716;23.560;2023-06-22T03:49:47;25;25;15
70520;PMS5003;58442;52.716;23.560;2023-06-22T03:51:56;29;28;19
70520;PMS5003;58442;52.716;23.560;2023-06-22T03:53:58;28;28;19
70520;PMS5003;58442;52.716;23.560;2023-06-22T03:55:59;22;22;16
70520;PMS5003;58442;52.716;23.560;2023-06-22T03:58:00;27;27;19
70520;PMS5003;58442;52.716;23.560;2023-06-22T04:00:11;23;23;16
70520;PMS5003;58442;52.716;23.560;2023-06-22T04:02:13;25;25;18
70520;PMS5003;58442;52.716;23.560;2023-06-22T04:04:15;33;30;19
70520;PMS5003;58442;52.716;23.560;2023-06-22T04:06:16;23;23;18
70520;PMS5003;58442;52.716;23.560;2023-06-22T04:08:26;35;33;20
70520;PMS5003;58442;52.716;23.560;2023-06-22T04:10:27;32;31;21
70520;PMS5003;58442;52.716;23.560;2023-06-22T04:12:29;31;30;19
70520;PMS5003;58442;52.716;23.560;2023-06-22T04:14:30;32;31;19
70520;PMS5003;58442;52.716;23.560;2023-06-22T04:16:41;27;27;18
70520;PMS5003;58442;52.716;23.560;2023-06-22T04:18:42;31;31;21
70520;PMS5003;58442;52.716;23.560;2023-06-22T04:20:43;34;32;20
70520;PMS5003;58442;52.716;23.560;2023-06-22T04:22:47;28;28;20
70520;PMS5003;58442;52.716;23.560;2023-06-22T04:24:55;31;30;20
70520;PMS5003;58442;52.716;23.560;2023-06-22T04:26:57;35;33;20
70520;PMS5003;58442;52.716;23.560;2023-06-22T04:29:03;33;31;20
70520;PMS5003;58442;52.716;23.560;2023-06-22T04:31:06;33;31;20
70520;PMS5003;58442;52.716;23.560;2023-06-22T04:33:15;33;32;20
70520;PMS5003;58442;52.716;23.560;2023-06-22T04:35:17;27;27;18
70520;PMS5003;58442;52.716;23.560;2023-06-22T04:37:18;27;27;19
70520;PMS5003;58442;52.716;23.560;2023-06-22T04:39:19;32;31;19
70520;PMS5003;58442;52.716;23.560;2023-06-22T04:41:27;35;33;20
70520;PMS5003;58442;52.716;23.560;2023-06-22T04:43:28;34;32;20
70520;PMS5003;58442;52.716;23.560;2023-06-22T04:45:31;25;25;16
70520;PMS5003;58442;52.716;23.560;2023-06-22T04:47:33;30;30;20
70520;PMS5003;58442;52.716;23.560;2023-06-22T04:49:41;31;30;21
70520;PMS5003;58442;52.716;23.560;2023-06-22T04:51:44;28;28;19
70520;PMS5003;58442;52.716;23.560;2023-06-22T04:53:45;31;30;17
70520;PMS5003;58442;52.716;23.560;2023-06-22T04:55:46;29;29;18
70520;PMS5003;58442;52.716;23.560;2023-06-22T04:57:56;27;27;18
70520;PMS5003;58442;52.716;23.560;2023-06-22T05:00:05;26;26;15
70520;PMS5003;58442;52.716;23.560;2023-06-22T05:02:13;27;27;15
70520;PMS5003;58442;52.716;23.560;2023-06-22T05:04:14;29;28;19
70520;PMS5003;58442;52.716;23.560;2023-06-22T05:06:17;22;22;15
70520;PMS5003;58442;52.716;23.560;2023-06-22T05:08:18;30;29;21
70520;PMS5003;58442;52.716;23.560;2023-06-22T05:10:20;31;29;20
70520;PMS5003;58442;52.716;23.560;2023-06-22T05:12:21;34;32;21
70520;PMS5003;58442;52.716;23.560;2023-06-22T05:14:32;31;30;21
70520;PMS5003;58442;52.716;23.560;2023-06-22T05:16:33;33;32;20
70520;PMS5003;58442;52.716;23.560;2023-06-22T05:18:34;28;28;20
70520;PMS5003;58442;52.716;23.560;2023-06-22T05:20:37;28;28;18
70520;PMS5003;58442;52.716;23.560;2023-06-22T05:22:46;27;27;19
70520;PMS5003;58442;52.716;23.560;2023-06-22T05:24:48;29;29;20
70520;PMS5003;58442;52.716;23.560;2023-06-22T05:26:49;27;27;20
70520;PMS5003;58442;52.716;23.560;2023-06-22T05:28:50;30;29;18
70520;PMS5003;58442;52.716;23.560;2023-06-22T05:31:01;30;29;19
70520;PMS5003;58442;52.716;23.560;2023-06-22T05:33:02;30;29;18
70520;PMS5003;58442;52.716;23.560;2023-06-22T05:35:04;20;20;16
70520;PMS5003;58442;52.716;23.560;2023-06-22T05:37:06;28;28;20
70520;PMS5003;58442;52.716;23.560;2023-06-22T05:39:19;36;33;21
70520;PMS5003;58442;52.716;23.560;2023-06-22T05:41:21;30;29;19
70520;PMS5003;58442;52.716;23.560;2023-06-22T05:43:22;33;31;20
70520;PMS5003;58442;52.716;23.560;2023-06-22T05:45:23;28;28;19
70520;PMS5003;58442;52.716;23.560;2023-06-22T05:47:31;34;32;22
70520;PMS5003;58442;52.716;23.560;2023-06-22T05:49:32;29;29;20
70520;PMS5003;58442;52.716;23.560;2023-06-22T05:51:33;30;29;20
70520;PMS5003;58442;52.716;23.560;2023-06-22T05:53:34;28;28;18
70520;PMS5003;58442;52.716;23.560;2023-06-22T05:55:45;31;31;20
70520;PMS5003;58442;52.716;23.560;2023-06-22T05:57:47;28;27;21
70520;PMS5003;58442;52.716;23.560;2023-06-22T05:59:48;29;29;18
70520;PMS5003;58442;52.716;23.560;2023-06-22T06:01:50;29;29;19
70520;PMS5003;58442;52.716;23.560;2023-06-22T06:04:00;29;28;18
70520;PMS5003;58442;52.716;23.560;2023-06-22T06:06:02;26;26;19
70520;PMS5003;58442;52.716;23.560;2023-06-22T06:08:04;26;26;17
70520;PMS5003;58442;52.716;23.560;2023-06-22T06:10:07;32;30;21
70520;PMS5003;58442;52.716;23.560;2023-06-22T06:12:15;28;28;19
70520;PMS5003;58442;52.716;23.560;2023-06-22T06:14:16;30;30;20
70520;PMS5003;58442;52.716;23.560;2023-06-22T06:16:17;27;27;20
70520;PMS5003;58442;52.716;23.560;2023-06-22T06:18:19;26;26;18
70520;PMS5003;58442;52.716;23.560;2023-06-22T06:20:30;31;30;18
70520;PMS5003;58442;52.716;23.560;2023-06-22T06:22:32;28;28;19
70520;PMS5003;58442;52.716;23.560;2023-06-22T06:24:34;33;31;21
70520;PMS5003;58442;52.716;23.560;2023-06-22T06:26:35;30;30;20
70520;PMS5003;58442;52.716;23.560;2023-06-22T06:28:45;32;31;20
70520;PMS5003;58442;52.716;23.560;2023-06-22T06:30:46;28;28;20
70520;PMS5003;58442;52.716;23.560;2023-06-22T06:32:48;35;32;22
70520;PMS5003;58442;52.716;23.560;2023-06-22T06:34:50;29;29;19
70520;PMS5003;58442;52.716;23.560;2023-06-22T06:37:00;32;31;19
70520;PMS5003;58442;52.716;23.560;2023-06-22T06:39:01;31;30;19
70520;PMS5003;58442;52.716;23.560;2023-06-22T06:41:04;28;28;20
70520;PMS5003;58442;52.716;23.560;2023-06-22T06:43:05;25;24;19
70520;PMS5003;58442;52.716;23.560;2023-06-22T06:45:15;36;34;21
70520;PMS5003;58442;52.716;23.560;2023-06-22T06:47:18;34;32;18
70520;PMS5003;58442;52.716;23.560;2023-06-22T06:49:20;31;30;20
70520;PMS5003;58442;52.716;23.560;2023-06-22T06:51:21;34;32;21
70520;PMS5003;58442;52.716;23.560;2023-06-22T06:53:29;37;34;22
70520;PMS5003;58442;52.716;23.560;2023-06-22T06:55:31;31;30;19
70520;PMS5003;58442;52.716;23.560;2023-06-22T06:57:33;28;28;19
70520;PMS5003;58442;52.716;23.560;2023-06-22T06:59:35;29;28;19
70520;PMS5003;58442;52.716;23.560;2023-06-22T07:01:44;30;30;20
70520;PMS5003;58442;52.716;23.560;2023-06-22T07:03:45;30;29;19
70520;PMS5003;58442;52.716;23.560;2023-06-22T07:05:47;28;28;17
70520;PMS5003;58442;52.716;23.560;2023-06-22T07:07:48;33;32;21
70520;PMS5003;58442;52.716;23.560;2023-06-22T07:09:59;29;29;16
70520;PMS5003;58442;52.716;23.560;2023-06-22T07:12:00;30;29;19
70520;PMS5003;58442;52.716;23.560;2023-06-22T07:14:02;33;32;21
70520;PMS5003;58442;52.716;23.560;2023-06-22T07:16:03;29;29;18
70520;PMS5003;58442;52.716;23.560;2023-06-22T07:18:13;32;31;21
70520;PMS5003;58442;52.716;23.560;2023-06-22T07:20:15;31;30;21
70520;PMS5003;58442;52.716;23.560;2023-06-22T07:22:16;30;29;20
70520;PMS5003;58442;52.716;23.560;2023-06-22T07:24:17;27;27;19
70520;PMS5003;58442;52.716;23.560;2023-06-22T07:26:28;33;31;21
70520;PMS5003;58442;52.716;23.560;2023-06-22T07:28:29;32;31;21
70520;PMS5003;58442;52.716;23.560;2023-06-22T07:30:38;33;31;20
70520;PMS5003;58442;52.716;23.560;2023-06-22T07:32:40;27;27;17
70520;PMS5003;58442;52.716;23.560;2023-06-22T07:34:44;28;27;19
70520;PMS5003;58442;52.716;23.560;2023-06-22T07:36:46;26;26;18
70520;PMS5003;58442;52.716;23.560;2023-06-22T07:38:47;30;29;21
70520;PMS5003;58442;52.716;23.560;2023-06-22T07:40:49;32;31;20
70520;PMS5003;58442;52.716;23.560;2023-06-22T07:42:57;36;33;21
70520;PMS5003;58442;52.716;23.560;2023-06-22T07:44:59;34;32;19
70520;PMS5003;58442;52.716;23.560;2023-06-22T07:47:00;37;34;23
70520;PMS5003;58442;52.716;23.560;2023-06-22T07:49:02;28;28;17
70520;PMS5003;58442;52.716;23.560;2023-06-22T07:51:14;40;35;21
70520;PMS5003;58442;52.716;23.560;2023-06-22T07:53:15;30;29;19
70520;PMS5003;58442;52.716;23.560;2023-06-22T07:55:17;31;30;21
70520;PMS5003;58442;52.716;23.560;2023-06-22T07:57:18;33;32;23
70520;PMS5003;58442;52.716;23.560;2023-06-22T07:59:29;35;33;21
70520;PMS5003;58442;52.716;23.560;2023-06-22T08:01:30;31;30;20
70520;PMS5003;58442;52.716;23.560;2023-06-22T08:03:31;34;32;21
70520;PMS5003;58442;52.716;23.560;2023-06-22T08:05:33;31;30;19
70520;PMS5003;58442;52.716;23.560;2023-06-22T08:07:44;32;31;20
70520;PMS5003;58442;52.716;23.560;2023-06-22T08:09:46;31;30;20
70520;PMS5003;58442;52.716;23.560;2023-06-22T08:11:50;34;32;20
70520;PMS5003;58442;52.716;23.560;2023-06-22T08:13:51;33;31;20
70520;PMS5003;58442;52.716;23.560;2023-06-22T08:15:59;32;31;19
70520;PMS5003;58442;52.716;23.560;2023-06-22T08:18:01;34;32;20
70520;PMS5003;58442;52.716;23.560;2023-06-22T08:20:02;31;30;18
70520;PMS5003;58442;52.716;23.560;2023-06-22T08:22:12;29;29;19
70520;PMS5003;58442;52.716;23.560;2023-06-22T08:24:14;30;29;18
70520;PMS5003;58442;52.716;23.560;2023-06-22T08:26:15;27;27;18
70520;PMS5003;58442;52.716;23.560;2023-06-22T08:28:17;33;31;19
70520;PMS5003;58442;52.716;23.560;2023-06-22T08:30:18;30;30;19
70520;PMS5003;58442;52.716;23.560;2023-06-22T08:32:28;34;32;20
70520;PMS5003;58442;52.716;23.560;2023-06-22T08:34:30;35;33;22
70520;PMS5003;58442;52.716;23.560;2023-06-22T08:36:31;30;30;21
70520;PMS5003;58442;52.716;23.560;2023-06-22T08:38:41;37;34;23
70520;PMS5003;58442;52.716;23.560;2023-06-22T08:40:43;31;30;21
70520;PMS5003;58442;52.716;23.560;2023-06-22T08:42:45;33;31;21
70520;PMS5003;58442;52.716;23.560;2023-06-22T08:44:47;30;30;22
70520;PMS5003;58442;52.716;23.560;2023-06-22T08:46:48;32;31;22
70520;PMS5003;58442;52.716;23.560;2023-06-22T08:48:58;30;30;20
70520;PMS5003;58442;52.716;23.560;2023-06-22T08:51:00;30;29;20
70520;PMS5003;58442;52.716;23.560;2023-06-22T08:53:01;27;27;19
70520;PMS5003;58442;52.716;23.560;2023-06-22T08:55:02;26;26;19
70520;PMS5003;58442;52.716;23.560;2023-06-22T08:57:12;30;30;20
70520;PMS5003;58442;52.716;23.560;2023-06-22T08:59:14;30;29;17
70520;PMS5003;58442;52.716;23.560;2023-06-22T09:01:15;26;26;19
70520;PMS5003;58442;52.716;23.560;2023-06-22T09:03:17;30;29;18
70520;PMS5003;58442;52.716;23.560;2023-06-22T09:05:27;33;31;18
70520;PMS5003;58442;52.716;23.560;2023-06-22T09:07:29;33;32;20
70520;PMS5003;58442;52.716;23.560;2023-06-22T09:09:30;32;31;21
70520;PMS5003;58442;52.716;23.560;2023-06-22T09:11:32;37;34;23
70520;PMS5003;58442;52.716;23.560;2023-06-22T09:13:43;28;28;20
70520;PMS5003;58442;52.716;23.560;2023-06-22T09:15:46;36;33;22
70520;PMS5003;58442;52.716;23.560;2023-06-22T09:17:48;32;31;19
70520;PMS5003;58442;52.716;23.560;2023-06-22T09:19:49;32;31;21
70520;PMS5003;58442;52.716;23.560;2023-06-22T09:21:57;32;31;21
70520;PMS5003;58442;52.716;23.560;2023-06-22T09:23:59;37;32;20
70520;PMS5003;58442;52.716;23.560;2023-06-22T09:26:01;35;33;23
70520;PMS5003;58442;52.716;23.560;2023-06-22T09:28:04;35;32;21
70520;PMS5003;58442;52.716;23.560;2023-06-22T09:30:12;32;31;20
70520;PMS5003;58442;52.716;23.560;2023-06-22T09:32:13;41;36;21
70520;PMS5003;58442;52.716;23.560;2023-06-22T09:34:15;35;33;22
70520;PMS5003;58442;52.716;23.560;2023-06-22T09:36:21;33;31;21
70520;PMS5003;58442;52.716;23.560;2023-06-22T09:38:27;36;33;22
70520;PMS5003;58442;52.716;23.560;2023-06-22T09:40:28;35;33;23
70520;PMS5003;58442;52.716;23.560;2023-06-22T09:42:29;31;30;20
70520;PMS5003;58442;52.716;23.560;2023-06-22T09:44:31;37;34;24
70520;PMS5003;58442;52.716;23.560;2023-06-22T09:46:41;35;32;22
70520;PMS5003;58442;52.716;23.560;2023-06-22T09:48:43;37;34;24
70520;PMS5003;58442;52.716;23.560;2023-06-22T09:50:44;33;31;22
70520;PMS5003;58442;52.716;23.560;2023-06-22T09:52:46;39;35;23
70520;PMS5003;58442;52.716;23.560;2023-06-22T09:54:56;40;36;22
70520;PMS5003;58442;52.716;23.560;2023-06-22T09:57:00;32;31;21
70520;PMS5003;58442;52.716;23.560;2023-06-22T09:59:02;43;38;25
70520;PMS5003;58442;52.716;23.560;2023-06-22T10:01:04;38;34;26
70520;PMS5003;58442;52.716;23.560;2023-06-22T10:03:11;37;34;24
70520;PMS5003;58442;52.716;23.560;2023-06-22T10:05:12;38;34;23
70520;PMS5003;58442;52.716;23.560;2023-06-22T10:07:14;37;34;22
70520;PMS5003;58442;52.716;23.560;2023-06-22T10:09:16;40;36;25
70520;PMS5003;58442;52.716;23.560;2023-06-22T10:11:25;33;31;22
70520;PMS5003;58442;52.716;23.560;2023-06-22T10:13:31;34;32;22
70520;PMS5003;58442;52.716;23.560;2023-06-22T10:15:33;35;33;22
70520;PMS5003;58442;52.716;23.560;2023-06-22T10:17:34;37;34;22
70520;PMS5003;58442;52.716;23.560;2023-06-22T10:19:40;35;33;21
70520;PMS5003;58442;52.716;23.560;2023-06-22T10:21:42;36;33;23
70520;PMS5003;58442;52.716;23.560;2023-06-22T10:23:43;35;32;21
70520;PMS5003;58442;52.716;23.560;2023-06-22T10:25:44;33;32;23
70520;PMS5003;58442;52.716;23.560;2023-06-22T10:27:55;33;32;22
70520;PMS5003;58442;52.716;23.560;2023-06-22T10:29:56;38;33;23
70520;PMS5003;58442;52.716;23.560;2023-06-22T10:31:57;33;32;23
70520;PMS5003;58442;52.716;23.560;2023-06-22T10:34:02;37;34;23
70520;PMS5003;58442;52.716;23.560;2023-06-22T10:36:10;32;31;22
70520;PMS5003;58442;52.716;23.560;2023-06-22T10:38:12;24;24;18
70520;PMS5003;58442;52.716;23.560;2023-06-22T10:40:14;14;14;8
70520;PMS5003;58442;52.716;23.560;2023-06-22T10:42:19;11;11;9
70520;PMS5003;58442;52.716;23.560;2023-06-22T10:44:24;12;12;9
70520;PMS5003;58442;52.716;23.560;2023-06-22T10:46:25;4;4;1
70520;PMS5003;58442;52.716;23.560;2023-06-22T10:48:28;15;12;7
70520;PMS5003;58442;52.716;23.560;2023-06-22T10:50:29;7;7;5
70520;PMS5003;58442;52.716;23.560;2023-06-22T10:52:39;9;9;8
70520;PMS5003;58442;52.716;23.560;2023-06-22T10:54:42;11;11;9
70520;PMS5003;58442;52.716;23.560;2023-06-22T10:56:43;10;10;8
70520;PMS5003;58442;52.716;23.560;2023-06-22T10:58:45;13;13;10
70520;PMS5003;58442;52.716;23.560;2023-06-22T11:00:53;10;10;9
70520;PMS5003;58442;52.716;23.560;2023-06-22T11:02:55;12;12;10
70520;PMS5003;58442;52.716;23.560;2023-06-22T11:04:56;16;16;11
70520;PMS5003;58442;52.716;23.560;2023-06-22T11:07:01;14;14;9
70520;PMS5003;58442;52.716;23.560;2023-06-22T11:09:08;21;21;14
70520;PMS5003;58442;52.716;23.560;2023-06-22T11:11:09;17;17;12
70520;PMS5003;58442;52.716;23.560;2023-06-22T11:13:11;21;21;15
70520;PMS5003;58442;52.716;23.560;2023-06-22T11:15:12;10;10;9
70520;PMS5003;58442;52.716;23.560;2023-06-22T11:17:23;17;17;13
70520;PMS5003;58442;52.716;23.560;2023-06-22T11:19:24;20;20;13
70520;PMS5003;58442;52.716;23.560;2023-06-22T11:21:25;20;20;13
70520;PMS5003;58442;52.716;23.560;2023-06-22T11:23:27;12;12;9
70520;PMS5003;58442;52.716;23.560;2023-06-22T11:25:37;21;21;13
70520;PMS5003;58442;52.716;23.560;2023-06-22T11:27:39;19;19;13
70520;PMS5003;58442;52.716;23.560;2023-06-22T11:29:40;15;15;11
70520;PMS5003;58442;52.716;23.560;2023-06-22T11:31:41;17;17;12
70520;PMS5003;58442;52.716;23.560;2023-06-22T11:33:52;19;19;12
70520;PMS5003;58442;52.716;23.560;2023-06-22T11:35:54;20;20;13
70520;PMS5003;58442;52.716;23.560;2023-06-22T11:37:57;18;18;12
70520;PMS5003;58442;52.716;23.560;2023-06-22T11:39:58;24;24;15
70520;PMS5003;58442;52.716;23.560;2023-06-22T11:42:07;21;21;14
70520;PMS5003;58442;52.716;23.560;2023-06-22T11:44:09;17;17;12
70520;PMS5003;58442;52.716;23.560;2023-06-22T11:46:10;19;19;15
70520;PMS5003;58442;52.716;23.560;2023-06-22T11:48:12;22;22;14
70520;PMS5003;58442;52.716;23.560;2023-06-22T11:50:21;21;21;14
70520;PMS5003;58442;52.716;23.560;2023-06-22T11:52:23;30;29;21
70520;PMS5003;58442;52.716;23.560;2023-06-22T11:54:24;33;32;22
70520;PMS5003;58442;52.716;23.560;2023-06-22T11:56:25;34;33;20
70520;PMS5003;58442;52.716;23.560;2023-06-22T11:58:37;38;34;21
70520;PMS5003;58442;52.716;23.560;2023-06-22T12:00:38;30;30;17
70520;PMS5003;58442;52.716;23.560;2023-06-22T12:02:39;33;31;21
70520;PMS5003;58442;52.716;23.560;2023-06-22T12:04:41;36;33;22
70520;PMS5003;58442;52.716;23.560;2023-06-22T12:06:42;29;29;21
70520;PMS5003;58442;52.716;23.560;2023-06-22T12:08:44;30;29;19
70520;PMS5003;58442;52.716;23.560;2023-06-22T12:10:45;26;26;15
70520;PMS5003;58442;52.716;23.560;2023-06-22T12:12:48;30;29;22
70520;PMS5003;58442;52.716;23.560;2023-06-22T12:14:49;35;32;22
70520;PMS5003;58442;52.716;23.560;2023-06-22T12:16:50;27;26;13
70520;PMS5003;58442;52.716;23.560;2023-06-22T12:18:52;24;24;18
70520;PMS5003;58442;52.716;23.560;2023-06-22T12:21:02;25;25;20
70520;PMS5003;58442;52.716;23.560;2023-06-22T12:23:04;28;28;18
70520;PMS5003;58442;52.716;23.560;2023-06-22T12:25:05;30;29;19
70520;PMS5003;58442;52.716;23.560;2023-06-22T12:27:07;22;22;17
70520;PMS5003;58442;52.716;23.560;2023-06-22T12:29:17;29;28;19
70520;PMS5003;58442;52.716;23.560;2023-06-22T12:31:19;29;28;20
70520;PMS5003;58442;52.716;23.560;2023-06-22T12:33:20;31;30;20
70520;PMS5003;58442;52.716;23.560;2023-06-22T12:35:21;33;32;21
70520;PMS5003;58442;52.716;23.560;2023-06-22T12:37:32;31;30;22
70520;PMS5003;58442;52.716;23.560;2023-06-22T12:39:34;31;30;19
70520;PMS5003;58442;52.716;23.560;2023-06-22T12:41:36;25;25;17
70520;PMS5003;58442;52.716;23.560;2023-06-22T12:43:37;27;27;17
70520;PMS5003;58442;52.716;23.560;2023-06-22T12:45:46;33;32;22
70520;PMS5003;58442;52.716;23.560;2023-06-22T12:47:48;25;25;20
70520;PMS5003;58442;52.716;23.560;2023-06-22T12:49:50;30;30;20
70520;PMS5003;58442;52.716;23.560;2023-06-22T12:51:51;28;28;19
70520;PMS5003;58442;52.716;23.560;2023-06-22T12:54:01;29;28;19
70520;PMS5003;58442;52.716;23.560;2023-06-22T12:56:03;26;26;17
70520;PMS5003;58442;52.716;23.560;2023-06-22T12:58:04;30;30;19
70520;PMS5003;58442;52.716;23.560;2023-06-22T13:00:06;25;24;16
70520;PMS5003;58442;52.716;23.560;2023-06-22T13:02:16;24;24;16
70520;PMS5003;58442;52.716;23.560;2023-06-22T13:04:17;22;22;15
70520;PMS5003;58442;52.716;23.560;2023-06-22T13:06:19;23;23;16
70520;PMS5003;58442;52.716;23.560;2023-06-22T13:08:21;21;21;15